sensor_id;sensor_type;location;lat;lon;timestamp;pressure;altitude;pressure_sealevel;temperature;humidity
9249;BME280;4660;41.768;26.198;2023-08-06T00:02:04;99511.19;;;27.58;100.00
9249;BME280;4660;41.768;26.198;2023-08-06T00:04:29;99511.41;;;27.61;100.00
9249;BME280;4660;41.768;26.198;2023-08-06T00:06:55;99515.28;;;27.65;100.00
9249;BME280;4660;41.768;26.198;2023-08-06T00:09:20;99506.47;;;27.58;100.00
9249;BME280;4660;41.768;26.198;2023-08-06T00:11:46;99496.03;;;27.45;100.00
9249;BME280;4660;41.768;26.198;2023-08-06T00:14:12;99491.50;;;27.69;100.00
9249;BME280;4660;41.768;26.198;2023-08-06T00:16:43;99482.69;;;27.57;100.00
9249;BME280;4660;41.768;26.198;2023-08-06T00:19:08;99494.03;;;27.56;100.00
9249;BME280;4660;41.768;26.198;2023-08-06T00:21:35;99498.22;;;27.48;100.00
9249;BME280;4660;41.768;26.198;2023-08-06T00:24:00;99496.63;;;27.37;100.00
9249;BME280;4660;41.768;26.198;2023-08-06T00:26:26;99501.00;;;27.43;100.00
9249;BME280;4660;41.768;26.198;2023-08-06T00:28:51;99490.78;;;27.43;100.00
9249;BME280;4660;41.768;26.198;2023-08-06T00:31:17;99502.03;;;27.57;100.00
9249;BME280;4660;41.768;26.198;2023-08-06T00:33:42;99515.66;;;27.43;100.00
9249;BME280;4660;41.768;26.198;2023-08-06T00:36:07;99512.00;;;27.53;100.00
9249;BME280;4660;41.768;26.198;2023-08-06T00:38:33;99519.16;;;27.69;100.00
9249;BME280;4660;41.768;26.198;2023-08-06T00:40:58;99512.22;;;27.67;100.00
9249;BME280;4660;41.768;26.198;2023-08-06T00:43:24;99503.66;;;27.63;100.00
9249;BME280;4660;41.768;26.198;2023-08-06T00:45:50;99508.38;;;27.63;100.00
9249;BME280;4660;41.768;26.198;2023-08-06T00:48:15;99495.91;;;27.76;100.00
9249;BME280;4660;41.768;26.198;2023-08-06T00:50:42;99510.31;;;27.67;100.00
9249;BME280;4660;41.768;26.198;2023-08-06T00:53:08;99502.91;;;27.53;100.00
9249;BME280;4660;41.768;26.198;2023-08-06T00:55:34;99498.22;;;27.48;100.00
9249;BME280;4660;41.768;26.198;2023-08-06T00:58:00;99488.56;;;27.40;100.00
9249;BME280;4660;41.768;26.198;2023-08-06T01:00:26;99498.31;;;27.23;100.00
9249;BME280;4660;41.768;26.198;2023-08-06T01:02:53;99492.75;;;27.33;100.00
9249;BME280;4660;41.768;26.198;2023-08-06T01:05:20;99494.97;;;27.31;100.00
9249;BME280;4660;41.768;26.198;2023-08-06T01:13:41;99476.22;;;27.23;100.00
9249;BME280;4660;41.768;26.198;2023-08-06T01:16:09;99472.94;;;27.05;100.00
9249;BME280;4660;41.768;26.198;2023-08-06T01:18:35;99474.59;;;27.11;100.00
9249;BME280;4660;41.768;26.198;2023-08-06T01:21:02;99465.75;;;26.99;100.00
9249;BME280;4660;41.768;26.198;2023-08-06T01:23:28;99460.50;;;27.03;100.00
9249;BME280;4660;41.768;26.198;2023-08-06T01:31:52;99462.16;;;26.99;100.00
9249;BME280;4660;41.768;26.198;2023-08-06T01:34:24;99450.34;;;26.88;100.00
9249;BME280;4660;41.768;26.198;2023-08-06T01:36:51;99445.94;;;26.82;100.00
9249;BME280;4660;41.768;26.198;2023-08-06T01:39:17;99446.50;;;26.74;100.00
9249;BME280;4660;41.768;26.198;2023-08-06T01:41:47;99456.41;;;26.90;100.00
9249;BME280;4660;41.768;26.198;2023-08-06T01:44:12;99441.53;;;26.81;100.00
9249;BME280;4660;41.768;26.198;2023-08-06T01:46:38;99440.41;;;26.87;100.00
9249;BME280;4660;41.768;26.198;2023-08-06T01:49:04;99428.56;;;26.71;100.00
9249;BME280;4660;41.768;26.198;2023-08-06T01:51:29;99418.38;;;26.67;100.00
9249;BME280;4660;41.768;26.198;2023-08-06T01:53:55;99424.69;;;26.77;100.00
9249;BME280;4660;41.768;26.198;2023-08-06T01:56:20;99432.47;;;26.65;100.00
9249;BME280;4660;41.768;26.198;2023-08-06T01:58:46;99424.72;;;26.67;100.00
9249;BME280;4660;41.768;26.198;2023-08-06T02:01:11;99422.50;;;26.69;100.00
9249;BME280;4660;41.768;26.198;2023-08-06T02:03:36;99425.53;;;26.68;100.00
9249;BME280;4660;41.768;26.198;2023-08-06T02:06:02;99418.91;;;26.74;100.00
9249;BME280;4660;41.768;26.198;2023-08-06T02:08:27;99429.91;;;26.79;100.00
9249;BME280;4660;41.768;26.198;2023-08-06T02:10:53;99418.91;;;26.74;100.00
9249;BME280;4660;41.768;26.198;2023-08-06T02:13:19;99422.78;;;26.73;100.00
9249;BME280;4660;41.768;26.198;2023-08-06T02:15:45;99424.97;;;26.76;100.00
9249;BME280;4660;41.768;26.198;2023-08-06T02:18:13;99420.00;;;26.78;100.00
9249;BME280;4660;41.768;26.198;2023-08-06T02:20:40;99413.94;;;26.71;100.00
9249;BME280;4660;41.768;26.198;2023-08-06T02:23:05;99423.56;;;26.83;100.00
9249;BME280;4660;41.768;26.198;2023-08-06T02:25:31;99415.56;;;26.82;100.00
9249;BME280;4660;41.768;26.198;2023-08-06T02:27:57;99394.66;;;26.66;100.00
9249;BME280;4660;41.768;26.198;2023-08-06T02:30:22;99385.81;;;26.69;100.00
9249;BME280;4660;41.768;26.198;2023-08-06T02:32:48;99391.91;;;26.66;100.00
9249;BME280;4660;41.768;26.198;2023-08-06T02:35:13;99397.94;;;26.63;100.00
9249;BME280;4660;41.768;26.198;2023-08-06T02:37:39;99393.53;;;26.61;100.00
9249;BME280;4660;41.768;26.198;2023-08-06T02:40:04;99392.47;;;26.42;100.00
9249;BME280;4660;41.768;26.198;2023-08-06T02:42:30;99399.91;;;26.52;100.00
9249;BME280;4660;41.768;26.198;2023-08-06T02:44:56;99409.28;;;26.30;100.00
9249;BME280;4660;41.768;26.198;2023-08-06T02:47:21;99403.50;;;26.42;100.00
9249;BME280;4660;41.768;26.198;2023-08-06T02:49:47;99397.41;;;26.35;100.00
9249;BME280;4660;41.768;26.198;2023-08-06T02:52:12;99408.47;;;26.30;100.00
9249;BME280;4660;41.768;26.198;2023-08-06T02:54:38;99408.47;;;26.10;100.00
9249;BME280;4660;41.768;26.198;2023-08-06T02:57:04;99405.97;;;25.83;100.00
9249;BME280;4660;41.768;26.198;2023-08-06T02:59:30;99406.53;;;25.79;100.00
9249;BME280;4660;41.768;26.198;2023-08-06T03:01:56;99405.72;;;25.94;100.00
9249;BME280;4660;41.768;26.198;2023-08-06T03:04:22;99417.56;;;26.10;100.00
9249;BME280;4660;41.768;26.198;2023-08-06T03:06:49;99412.31;;;26.19;100.00
9249;BME280;4660;41.768;26.198;2023-08-06T03:09:15;99398.25;;;26.20;100.00
9249;BME280;4660;41.768;26.198;2023-08-06T03:11:40;99406.81;;;26.09;100.00
9249;BME280;4660;41.768;26.198;2023-08-06T03:14:06;99420.59;;;26.09;100.00
9249;BME280;4660;41.768;26.198;2023-08-06T03:16:31;99415.34;;;26.02;100.00
9249;BME280;4660;41.768;26.198;2023-08-06T03:18:57;99414.25;;;26.13;100.00
9249;BME280;4660;41.768;26.198;2023-08-06T03:21:22;99414.78;;;25.90;100.00
9249;BME280;4660;41.768;26.198;2023-08-06T03:23:48;99426.63;;;25.80;100.00
9249;BME280;4660;41.768;26.198;2023-08-06T03:26:16;99429.63;;;25.78;100.00
9249;BME280;4660;41.768;26.198;2023-08-06T03:28:42;99440.97;;;25.87;100.00
9249;BME280;4660;41.768;26.198;2023-08-06T03:31:08;99423.31;;;25.98;100.00
9249;BME280;4660;41.768;26.198;2023-08-06T03:33:33;99415.34;;;26.12;100.00
9249;BME280;4660;41.768;26.198;2023-08-06T03:35:59;99420.56;;;26.14;100.00
9249;BME280;4660;41.768;26.198;2023-08-06T03:38:24;99417.25;;;26.06;100.00
9249;BME280;4660;41.768;26.198;2023-08-06T03:40:50;99414.50;;;26.06;100.00
9249;BME280;4660;41.768;26.198;2023-08-06T03:43:16;99409.00;;;25.86;100.00
9249;BME280;4660;41.768;26.198;2023-08-06T03:45:41;99424.19;;;26.09;100.00
9249;BME280;4660;41.768;26.198;2023-08-06T03:48:08;99418.13;;;26.22;100.00
9249;BME280;4660;41.768;26.198;2023-08-06T03:50:33;99422.28;;;26.45;100.00
9249;BME280;4660;41.768;26.198;2023-08-06T03:52:59;99417.03;;;26.44;100.00
9249;BME280;4660;41.768;26.198;2023-08-06T03:55:24;99412.34;;;26.39;100.00
9249;BME280;4660;41.768;26.198;2023-08-06T03:57:50;99412.88;;;26.41;100.00
9249;BME280;4660;41.768;26.198;2023-08-06T04:00:16;99408.72;;;26.59;100.00
9249;BME280;4660;41.768;26.198;2023-08-06T04:02:41;99403.25;;;26.44;100.00
9249;BME280;4660;41.768;26.198;2023-08-06T04:05:07;99408.44;;;26.55;100.00
9249;BME280;4660;41.768;26.198;2023-08-06T04:07:33;99400.50;;;26.44;100.00
9249;BME280;4660;41.768;26.198;2023-08-06T04:09:59;99390.28;;;26.39;100.00
9249;BME280;4660;41.768;26.198;2023-08-06T04:12:26;99400.19;;;26.55;100.00
9249;BME280;4660;41.768;26.198;2023-08-06T04:14:52;99408.94;;;26.78;100.00
9249;BME280;4660;41.768;26.198;2023-08-06T04:17:19;99400.19;;;26.60;100.00
9249;BME280;4660;41.768;26.198;2023-08-06T04:19:53;99399.09;;;26.51;100.00
9249;BME280;4660;41.768;26.198;2023-08-06T04:22:18;99397.16;;;26.42;100.00
9249;BME280;4660;41.768;26.198;2023-08-06T04:24:44;99401.28;;;26.49;100.00
9249;BME280;4660;41.768;26.198;2023-08-06T04:27:10;99404.63;;;26.51;100.00
9249;BME280;4660;41.768;26.198;2023-08-06T04:29:36;99396.84;;;26.69;100.00
9249;BME280;4660;41.768;26.198;2023-08-06T04:32:03;99400.75;;;26.52;100.00
9249;BME280;4660;41.768;26.198;2023-08-06T04:34:29;99404.31;;;26.53;100.00
9249;BME280;4660;41.768;26.198;2023-08-06T04:36:54;99397.97;;;26.57;100.00
9249;BME280;4660;41.768;26.198;2023-08-06T04:39:20;99400.19;;;26.55;100.00
9249;BME280;4660;41.768;26.198;2023-08-06T04:41:45;99394.09;;;26.74;100.00
9249;BME280;4660;41.768;26.198;2023-08-06T04:44:11;99404.00;;;26.65;100.00
9249;BME280;4660;41.768;26.198;2023-08-06T04:46:36;99405.69;;;26.66;100.00
9249;BME280;4660;41.768;26.198;2023-08-06T04:49:02;99408.16;;;26.57;100.00
9249;BME280;4660;41.768;26.198;2023-08-06T04:51:27;99405.16;;;26.58;100.00
9249;BME280;4660;41.768;26.198;2023-08-06T04:53:53;99406.72;;;26.85;100.00
9249;BME280;4660;41.768;26.198;2023-08-06T04:56:18;99397.38;;;26.76;100.00
9249;BME280;4660;41.768;26.198;2023-08-06T04:58:44;99402.34;;;26.74;100.00
9249;BME280;4660;41.768;26.198;2023-08-06T05:01:09;99409.56;;;26.54;100.00
9249;BME280;4660;41.768;26.198;2023-08-06T05:03:35;99414.53;;;26.52;100.00
9249;BME280;4660;41.768;26.198;2023-08-06T05:06:00;99406.25;;;26.42;100.00
9249;BME280;4660;41.768;26.198;2023-08-06T05:08:26;99402.97;;;26.40;100.00
9249;BME280;4660;41.768;26.198;2023-08-06T05:10:51;99406.81;;;26.39;100.00
9249;BME280;4660;41.768;26.198;2023-08-06T05:13:17;99401.81;;;26.67;100.00
9249;BME280;4660;41.768;26.198;2023-08-06T05:15:42;99413.06;;;26.96;100.00
9249;BME280;4660;41.768;26.198;2023-08-06T05:18:10;99410.31;;;26.85;100.00
9249;BME280;4660;41.768;26.198;2023-08-06T05:20:41;99415.63;;;26.56;100.00
9249;BME280;4660;41.768;26.198;2023-08-06T05:23:06;99394.66;;;26.55;100.00
9249;BME280;4660;41.768;26.198;2023-08-06T05:25:34;99426.31;;;26.88;100.00
9249;BME280;4660;41.768;26.198;2023-08-06T05:28:00;99422.97;;;26.97;100.00
9249;BME280;4660;41.768;26.198;2023-08-06T05:30:27;99425.19;;;27.10;100.00
9249;BME280;4660;41.768;26.198;2023-08-06T05:32:52;99441.41;;;27.22;100.00
9249;BME280;4660;41.768;26.198;2023-08-06T05:35:18;99445.25;;;27.31;100.00
9249;BME280;4660;41.768;26.198;2023-08-06T05:37:43;99434.00;;;27.17;100.00
9249;BME280;4660;41.768;26.198;2023-08-06T05:40:09;99439.53;;;27.12;100.00
9249;BME280;4660;41.768;26.198;2023-08-06T05:42:34;99427.13;;;27.09;100.00
9249;BME280;4660;41.768;26.198;2023-08-06T05:45:00;99424.00;;;27.31;100.00
9249;BME280;4660;41.768;26.198;2023-08-06T05:47:25;99419.84;;;27.29;100.00
9249;BME280;4660;41.768;26.198;2023-08-06T05:49:51;99428.84;;;27.55;100.00
9249;BME280;4660;41.768;26.198;2023-08-06T05:52:16;99432.94;;;27.67;100.00
9249;BME280;4660;41.768;26.198;2023-08-06T05:54:42;99425.66;;;27.87;100.00
9249;BME280;4660;41.768;26.198;2023-08-06T05:57:07;99409.81;;;27.97;100.00
9249;BME280;4660;41.768;26.198;2023-08-06T05:59:33;99406.19;;;28.02;100.00
9249;BME280;4660;41.768;26.198;2023-08-06T06:01:58;99394.03;;;27.98;100.00
9249;BME280;4660;41.768;26.198;2023-08-06T06:04:25;99395.63;;;28.09;100.00
9249;BME280;4660;41.768;26.198;2023-08-06T06:06:50;99392.78;;;28.14;100.00
9249;BME280;4660;41.768;26.198;2023-08-06T06:09:16;99390.59;;;28.16;100.00
9249;BME280;4660;41.768;26.198;2023-08-06T06:11:41;99376.16;;;28.19;100.00
9249;BME280;4660;41.768;26.198;2023-08-06T06:14:07;99371.81;;;28.42;100.00
9249;BME280;4660;41.768;26.198;2023-08-06T06:16:33;99378.09;;;28.53;100.00
9249;BME280;4660;41.768;26.198;2023-08-06T06:18:59;99378.63;;;28.55;100.00
9249;BME280;4660;41.768;26.198;2023-08-06T06:21:25;99354.88;;;28.49;100.00
9249;BME280;4660;41.768;26.198;2023-08-06T06:23:50;99366.06;;;28.63;100.00
9249;BME280;4660;41.768;26.198;2023-08-06T06:26:17;99360.50;;;28.68;100.00
9249;BME280;4660;41.768;26.198;2023-08-06T06:28:43;99363.69;;;28.80;100.00
9249;BME280;4660;41.768;26.198;2023-08-06T06:31:08;99362.78;;;28.85;100.00
9249;BME280;4660;41.768;26.198;2023-08-06T06:33:34;99370.22;;;28.89;100.00
9249;BME280;4660;41.768;26.198;2023-08-06T06:36:00;99368.44;;;29.22;100.00
9249;BME280;4660;41.768;26.198;2023-08-06T06:38:28;99377.22;;;29.48;100.00
9249;BME280;4660;41.768;26.198;2023-08-06T06:40:57;99383.69;;;29.63;100.00
9249;BME280;4660;41.768;26.198;2023-08-06T06:43:23;99377.69;;;29.74;100.00
9249;BME280;4660;41.768;26.198;2023-08-06T06:46:06;99381.91;;;29.29;100.00
9249;BME280;4660;41.768;26.198;2023-08-06T06:48:33;99372.03;;;29.42;100.00
9249;BME280;4660;41.768;26.198;2023-08-06T06:50:59;99369.38;;;29.74;100.00
9249;BME280;4660;41.768;26.198;2023-08-06T06:53:25;99379.41;;;29.70;100.00
9249;BME280;4660;41.768;26.198;2023-08-06T06:55:56;99379.03;;;29.77;100.00
9249;BME280;4660;41.768;26.198;2023-08-06T06:58:26;99374.06;;;29.93;100.00
9249;BME280;4660;41.768;26.198;2023-08-06T07:00:51;99379.25;;;30.18;100.00
9249;BME280;4660;41.768;26.198;2023-08-06T07:03:17;99377.41;;;30.27;100.00
9249;BME280;4660;41.768;26.198;2023-08-06T07:05:44;99368.81;;;30.42;100.00
9249;BME280;4660;41.768;26.198;2023-08-06T07:08:09;99369.22;;;30.50;100.00
9249;BME280;4660;41.768;26.198;2023-08-06T07:10:35;99362.66;;;30.46;100.00
9249;BME280;4660;41.768;26.198;2023-08-06T07:13:00;99369.50;;;30.67;100.00
9249;BME280;4660;41.768;26.198;2023-08-06T07:15:26;99375.47;;;30.88;100.00
9249;BME280;4660;41.768;26.198;2023-08-06T07:17:52;99383.28;;;31.00;100.00
9249;BME280;4660;41.768;26.198;2023-08-06T07:20:17;99364.84;;;31.17;100.00
9249;BME280;4660;41.768;26.198;2023-08-06T07:22:44;99375.88;;;31.09;100.00
9249;BME280;4660;41.768;26.198;2023-08-06T07:25:09;99369.09;;;31.15;100.00
9249;BME280;4660;41.768;26.198;2023-08-06T07:27:35;99370.72;;;31.16;100.00
9249;BME280;4660;41.768;26.198;2023-08-06T07:30:01;99376.81;;;31.32;100.00
9249;BME280;4660;41.768;26.198;2023-08-06T07:32:26;99358.22;;;31.55;100.00
9249;BME280;4660;41.768;26.198;2023-08-06T07:34:53;99296.84;;;31.15;100.00
9249;BME280;4660;41.768;26.198;2023-08-06T07:37:22;99343.81;;;31.53;100.00
9249;BME280;4660;41.768;26.198;2023-08-06T07:39:48;99338.75;;;31.55;99.93
9249;BME280;4660;41.768;26.198;2023-08-06T07:42:14;99352.00;;;31.58;99.88
9249;BME280;4660;41.768;26.198;2023-08-06T07:44:39;99360.13;;;31.68;99.01
9249;BME280;4660;41.768;26.198;2023-08-06T07:47:05;99368.16;;;31.69;99.84
9249;BME280;4660;41.768;26.198;2023-08-06T07:49:30;99365.59;;;31.73;98.19
9249;BME280;4660;41.768;26.198;2023-08-06T07:51:56;99381.41;;;31.86;97.95
9249;BME280;4660;41.768;26.198;2023-08-06T07:54:21;99377.06;;;32.16;96.36
9249;BME280;4660;41.768;26.198;2023-08-06T07:56:47;99386.16;;;32.53;94.87
9249;BME280;4660;41.768;26.198;2023-08-06T07:59:13;99395.09;;;32.72;93.40
9249;BME280;4660;41.768;26.198;2023-08-06T08:01:38;99386.03;;;32.58;92.21
9249;BME280;4660;41.768;26.198;2023-08-06T08:04:04;99402.28;;;32.20;93.88
9249;BME280;4660;41.768;26.198;2023-08-06T08:06:30;99427.72;;;31.13;84.46
9249;BME280;4660;41.768;26.198;2023-08-06T08:08:55;99424.44;;;29.62;86.69
9249;BME280;4660;41.768;26.198;2023-08-06T08:11:21;99399.53;;;28.66;89.05
9249;BME280;4660;41.768;26.198;2023-08-06T08:13:46;99391.25;;;28.03;95.49
9249;BME280;4660;41.768;26.198;2023-08-06T08:16:12;99364.13;;;27.66;97.33
9249;BME280;4660;41.768;26.198;2023-08-06T08:18:37;99379.50;;;27.38;98.37
9249;BME280;4660;41.768;26.198;2023-08-06T08:21:03;99378.75;;;27.66;97.85
9249;BME280;4660;41.768;26.198;2023-08-06T08:23:28;99367.94;;;27.31;100.00
9249;BME280;4660;41.768;26.198;2023-08-06T08:25:54;99376.81;;;27.23;100.00
9249;BME280;4660;41.768;26.198;2023-08-06T08:28:19;99379.06;;;27.10;100.00
9249;BME280;4660;41.768;26.198;2023-08-06T08:30:45;99372.78;;;26.84;100.00
9249;BME280;4660;41.768;26.198;2023-08-06T08:33:11;99407.22;;;27.07;100.00
9249;BME280;4660;41.768;26.198;2023-08-06T08:35:36;99395.75;;;26.34;100.00
9249;BME280;4660;41.768;26.198;2023-08-06T08:38:02;99404.59;;;26.26;100.00
9249;BME280;4660;41.768;26.198;2023-08-06T08:40:32;99421.69;;;26.18;100.00
9249;BME280;4660;41.768;26.198;2023-08-06T08:42:58;99415.63;;;25.95;100.00
9249;BME280;4660;41.768;26.198;2023-08-06T08:45:27;99405.13;;;25.77;100.00
9249;BME280;4660;41.768;26.198;2023-08-06T08:47:54;99400.34;;;25.57;100.00
9249;BME280;4660;41.768;26.198;2023-08-06T08:50:20;99410.75;;;25.24;100.00
9249;BME280;4660;41.768;26.198;2023-08-06T08:52:46;99422.78;;;25.13;100.00
9249;BME280;4660;41.768;26.198;2023-08-06T08:55:14;99488.97;;;24.91;100.00
9249;BME280;4660;41.768;26.198;2023-08-06T08:57:40;99550.78;;;24.47;100.00
9249;BME280;4660;41.768;26.198;2023-08-06T09:00:06;99583.59;;;23.82;100.00
9249;BME280;4660;41.768;26.198;2023-08-06T09:02:33;99475.81;;;22.37;100.00
9249;BME280;4660;41.768;26.198;2023-08-06T09:05:00;99530.16;;;22.00;100.00
9249;BME280;4660;41.768;26.198;2023-08-06T09:07:29;99484.22;;;22.02;100.00
9249;BME280;4660;41.768;26.198;2023-08-06T09:09:57;99390.38;;;21.78;100.00
9249;BME280;4660;41.768;26.198;2023-08-06T09:12:27;99446.91;;;21.84;100.00
9249;BME280;4660;41.768;26.198;2023-08-06T09:14:54;99399.41;;;21.62;100.00
9249;BME280;4660;41.768;26.198;2023-08-06T09:17:19;99350.72;;;21.64;100.00
9249;BME280;4660;41.768;26.198;2023-08-06T09:19:46;99357.84;;;22.10;100.00
9249;BME280;4660;41.768;26.198;2023-08-06T09:22:14;99333.91;;;21.89;100.00
9249;BME280;4660;41.768;26.198;2023-08-06T09:24:41;99353.00;;;21.84;100.00
9249;BME280;4660;41.768;26.198;2023-08-06T09:27:11;99333.34;;;21.87;100.00
9249;BME280;4660;41.768;26.198;2023-08-06T09:29:43;99324.44;;;21.96;100.00
9249;BME280;4660;41.768;26.198;2023-08-06T09:32:11;99350.38;;;22.22;100.00
9249;BME280;4660;41.768;26.198;2023-08-06T09:34:46;99348.25;;;22.46;100.00
9249;BME280;4660;41.768;26.198;2023-08-06T09:37:12;99337.47;;;22.62;100.00
9249;BME280;4660;41.768;26.198;2023-08-06T09:39:39;99352.44;;;22.93;100.00
9249;BME280;4660;41.768;26.198;2023-08-06T09:42:08;99352.44;;;23.15;100.00
9249;BME280;4660;41.768;26.198;2023-08-06T09:44:33;99368.56;;;23.60;100.00
9249;BME280;4660;41.768;26.198;2023-08-06T09:47:03;99379.75;;;24.12;100.00
9249;BME280;4660;41.768;26.198;2023-08-06T09:51:59;99384.28;;;24.66;100.00
9249;BME280;4660;41.768;26.198;2023-08-06T09:54:26;99383.84;;;24.89;100.00
9249;BME280;4660;41.768;26.198;2023-08-06T09:56:56;99386.78;;;25.25;100.00
9249;BME280;4660;41.768;26.198;2023-08-06T09:59:25;99376.63;;;25.36;100.00
9249;BME280;4660;41.768;26.198;2023-08-06T10:01:51;99370.28;;;25.25;100.00
9249;BME280;4660;41.768;26.198;2023-08-06T10:04:17;99373.06;;;25.40;100.00
9249;BME280;4660;41.768;26.198;2023-08-06T10:06:46;99376.47;;;25.83;100.00
9249;BME280;4660;41.768;26.198;2023-08-06T10:09:12;99373.19;;;26.01;100.00
9249;BME280;4660;41.768;26.198;2023-08-06T10:11:39;99383.09;;;26.13;100.00
9249;BME280;4660;41.768;26.198;2023-08-06T10:14:23;99395.22;;;26.27;100.00
9249;BME280;4660;41.768;26.198;2023-08-06T10:16:50;99397.16;;;26.31;100.00
9249;BME280;4660;41.768;26.198;2023-08-06T10:19:17;99397.97;;;26.27;100.00
9249;BME280;4660;41.768;26.198;2023-08-06T10:22:09;99412.31;;;26.24;100.00
9249;BME280;4660;41.768;26.198;2023-08-06T10:24:58;99407.34;;;26.26;100.00
9249;BME280;4660;41.768;26.198;2023-08-06T10:27:32;99385.56;;;26.19;100.00
9249;BME280;4660;41.768;26.198;2023-08-06T10:30:27;99389.13;;;26.55;100.00
9249;BME280;4660;41.768;26.198;2023-08-06T10:33:01;99406.22;;;26.73;100.00
9249;BME280;4660;41.768;26.198;2023-08-06T10:35:44;99405.38;;;26.77;100.00
9249;BME280;4660;41.768;26.198;2023-08-06T10:38:13;99406.13;;;27.03;100.00
9249;BME280;4660;41.768;26.198;2023-08-06T10:40:41;99400.59;;;27.03;100.00
9249;BME280;4660;41.768;26.198;2023-08-06T10:43:07;99404.22;;;27.09;100.00
9249;BME280;4660;41.768;26.198;2023-08-06T10:45:37;99396.09;;;27.28;100.00
9249;BME280;4660;41.768;26.198;2023-08-06T10:48:04;99402.44;;;27.33;100.00
9249;BME280;4660;41.768;26.198;2023-08-06T10:50:30;99411.81;;;27.37;100.00
9249;BME280;4660;41.768;26.198;2023-08-06T10:52:57;99408.56;;;27.80;100.00
9249;BME280;4660;41.768;26.198;2023-08-06T10:55:25;99406.97;;;28.08;100.00
9249;BME280;4660;41.768;26.198;2023-08-06T10:57:51;99404.34;;;28.21;100.00
9249;BME280;4660;41.768;26.198;2023-08-06T11:00:16;99404.53;;;28.01;100.00
9249;BME280;4660;41.768;26.198;2023-08-06T11:02:42;99388.50;;;27.98;100.00
9249;BME280;4660;41.768;26.198;2023-08-06T11:05:11;99388.22;;;28.29;100.00
9249;BME280;4660;41.768;26.198;2023-08-06T11:07:37;99399.59;;;28.32;100.00
9249;BME280;4660;41.768;26.198;2023-08-06T11:10:04;99393.38;;;28.45;100.00
9249;BME280;4660;41.768;26.198;2023-08-06T11:12:33;99401.50;;;28.90;100.00
9249;BME280;4660;41.768;26.198;2023-08-06T11:15:00;99396.88;;;29.09;100.00
9249;BME280;4660;41.768;26.198;2023-08-06T11:17:30;99394.41;;;29.26;100.00
9249;BME280;4660;41.768;26.198;2023-08-06T11:19:56;99384.00;;;29.18;100.00
9249;BME280;4660;41.768;26.198;2023-08-06T11:22:24;99378.50;;;29.37;100.00
9249;BME280;4660;41.768;26.198;2023-08-06T11:24:49;99386.16;;;29.64;100.00
9249;BME280;4660;41.768;26.198;2023-08-06T11:27:16;99389.22;;;29.63;100.00
9249;BME280;4660;41.768;26.198;2023-08-06T11:29:43;99387.59;;;29.62;100.00
9249;BME280;4660;41.768;26.198;2023-08-06T11:32:09;99386.47;;;29.81;100.00
9249;BME280;4660;41.768;26.198;2023-08-06T11:34:35;99376.47;;;29.99;100.00
9249;BME280;4660;41.768;26.198;2023-08-06T11:37:04;99374.50;;;30.19;100.00
9249;BME280;4660;41.768;26.198;2023-08-06T11:39:35;99377.25;;;30.37;100.00
9249;BME280;4660;41.768;26.198;2023-08-06T11:42:03;99386.69;;;30.50;100.00
9249;BME280;4660;41.768;26.198;2023-08-06T11:44:31;99387.19;;;30.71;100.00
9249;BME280;4660;41.768;26.198;2023-08-06T11:47:00;99387.00;;;30.95;100.00
9249;BME280;4660;41.768;26.198;2023-08-06T11:49:46;99385.13;;;30.90;100.00
9249;BME280;4660;41.768;26.198;2023-08-06T11:52:22;99382.16;;;31.28;100.00
9249;BME280;4660;41.768;26.198;2023-08-06T11:57:39;99376.44;;;31.61;100.00
9249;BME280;4660;41.768;26.198;2023-08-06T12:00:13;99384.31;;;31.31;100.00
9249;BME280;4660;41.768;26.198;2023-08-06T12:02:40;99379.28;;;31.69;100.00
9249;BME280;4660;41.768;26.198;2023-08-06T12:05:14;99374.16;;;31.63;100.00
9249;BME280;4660;41.768;26.198;2023-08-06T12:07:42;99376.59;;;31.78;100.00
9249;BME280;4660;41.768;26.198;2023-08-06T12:10:09;99362.97;;;31.90;100.00
9249;BME280;4660;41.768;26.198;2023-08-06T12:12:35;99376.75;;;32.18;100.00
9249;BME280;4660;41.768;26.198;2023-08-06T12:15:01;99372.03;;;32.27;100.00
9249;BME280;4660;41.768;26.198;2023-08-06T12:17:27;99364.59;;;32.36;100.00
9249;BME280;4660;41.768;26.198;2023-08-06T12:19:53;99368.81;;;32.65;100.00
9249;BME280;4660;41.768;26.198;2023-08-06T12:22:19;99368.22;;;32.76;100.00
9249;BME280;4660;41.768;26.198;2023-08-06T12:24:45;99359.97;;;32.63;100.00
9249;BME280;4660;41.768;26.198;2023-08-06T12:27:11;99375.59;;;32.41;100.00
9249;BME280;4660;41.768;26.198;2023-08-06T12:29:40;99360.13;;;32.04;100.00
9249;BME280;4660;41.768;26.198;2023-08-06T12:32:07;99345.72;;;31.66;100.00
9249;BME280;4660;41.768;26.198;2023-08-06T12:34:32;99357.94;;;31.42;100.00
9249;BME280;4660;41.768;26.198;2023-08-06T12:36:58;99328.13;;;30.93;100.00
9249;BME280;4660;41.768;26.198;2023-08-06T12:39:23;99335.03;;;30.95;100.00
9249;BME280;4660;41.768;26.198;2023-08-06T12:41:49;99324.53;;;30.92;100.00
9249;BME280;4660;41.768;26.198;2023-08-06T12:44:14;99329.78;;;31.08;100.00
9249;BME280;4660;41.768;26.198;2023-08-06T12:46:40;99322.47;;;31.12;100.00
9249;BME280;4660;41.768;26.198;2023-08-06T12:49:06;99334.47;;;31.35;100.00
9249;BME280;4660;41.768;26.198;2023-08-06T12:51:32;99343.50;;;31.54;100.00
9249;BME280;4660;41.768;26.198;2023-08-06T12:53:59;99304.31;;;31.42;100.00
9249;BME280;4660;41.768;26.198;2023-08-06T12:56:25;99340.78;;;31.63;100.00
9249;BME280;4660;41.768;26.198;2023-08-06T12:58:50;99348.63;;;31.61;100.00
9249;BME280;4660;41.768;26.198;2023-08-06T13:01:16;99353.81;;;31.76;100.00
9249;BME280;4660;41.768;26.198;2023-08-06T13:03:41;99332.47;;;31.85;100.00
9249;BME280;4660;41.768;26.198;2023-08-06T13:06:07;99352.03;;;31.94;100.00
9249;BME280;4660;41.768;26.198;2023-08-06T13:08:34;99339.19;;;31.84;100.00
9249;BME280;4660;41.768;26.198;2023-08-06T13:11:00;99343.34;;;31.73;100.00
9249;BME280;4660;41.768;26.198;2023-08-06T13:13:26;99332.50;;;31.71;100.00
9249;BME280;4660;41.768;26.198;2023-08-06T13:15:52;99331.94;;;31.61;100.00